createdAt,value
2023-09-15T00:00:36.221Z,1017.17
2023-09-15T00:01:36.316Z,1017.19
2023-09-15T00:02:36.209Z,1017.16
2023-09-15T00:03:36.207Z,1017.20
2023-09-15T00:04:36.224Z,1017.14
2023-09-15T00:05:36.179Z,1017.19
2023-09-15T00:06:36.210Z,1017.19
2023-09-15T00:07:36.144Z,1017.23
2023-09-15T00:08:36.128Z,1017.22
2023-09-15T00:09:36.117Z,1017.23
2023-09-15T00:10:36.118Z,1017.23
2023-09-15T00:11:36.177Z,1017.28
2023-09-15T00:12:36.090Z,1017.23
2023-09-15T00:13:36.083Z,1017.23
2023-09-15T00:14:36.050Z,1017.26
2023-09-15T00:15:36.085Z,1017.27
2023-09-15T00:16:38.831Z,1017.24
2023-09-15T00:17:36.047Z,1017.27
2023-09-15T00:18:36.005Z,1017.24
2023-09-15T00:19:35.979Z,1017.26
2023-09-15T00:20:35.952Z,1017.26
2023-09-15T00:21:35.943Z,1017.24
2023-09-15T00:22:35.930Z,1017.24
2023-09-15T00:23:35.964Z,1017.25
2023-09-15T00:24:35.922Z,1017.27
2023-09-15T00:25:35.923Z,1017.26
2023-09-15T00:26:35.890Z,1017.25
2023-09-15T00:27:35.921Z,1017.26
2023-09-15T00:28:35.874Z,1017.28
2023-09-15T00:29:35.866Z,1017.30
2023-09-15T00:30:36.781Z,1017.27
2023-09-15T00:31:35.837Z,1017.28
2023-09-15T00:32:35.846Z,1017.30
2023-09-15T00:33:35.861Z,1017.29
2023-09-15T00:34:35.771Z,1017.30
2023-09-15T00:35:35.775Z,1017.29
2023-09-15T00:36:35.774Z,1017.26
2023-09-15T00:37:35.758Z,1017.27
2023-09-15T00:38:35.720Z,1017.25
2023-09-15T00:39:35.736Z,1017.30
2023-09-15T00:40:35.739Z,1017.24
2023-09-15T00:41:35.692Z,1017.29
2023-09-15T00:42:35.666Z,1017.28
2023-09-15T00:43:35.672Z,1017.26
2023-09-15T00:44:35.657Z,1017.27
2023-09-15T00:45:35.638Z,1017.27
2023-09-15T00:46:35.689Z,1017.21
2023-09-15T00:47:35.643Z,1017.30
2023-09-15T00:48:35.639Z,1017.27
2023-09-15T00:49:35.594Z,1017.23
2023-09-15T00:50:35.601Z,1017.27
2023-09-15T00:51:35.568Z,1017.23
2023-09-15T00:52:35.619Z,1017.28
2023-09-15T00:53:35.529Z,1017.24
2023-09-15T00:54:35.513Z,1017.26
2023-09-15T00:55:35.619Z,1017.25
2023-09-15T00:56:35.508Z,1017.26
2023-09-15T00:57:35.516Z,1017.30
2023-09-15T00:58:35.469Z,1017.24
2023-09-15T00:59:35.466Z,1017.28
2023-09-15T01:00:35.443Z,1017.27
2023-09-15T01:01:35.602Z,1017.24
2023-09-15T01:02:35.522Z,1017.23
2023-09-15T01:03:35.527Z,1017.26
2023-09-15T01:04:35.400Z,1017.27
2023-09-15T01:05:35.424Z,1017.20
2023-09-15T01:06:35.384Z,1017.24
2023-09-15T01:07:35.389Z,1017.27
2023-09-15T01:08:35.350Z,1017.12
2023-09-15T01:09:35.348Z,1017.22
2023-09-15T01:10:35.330Z,1017.19
2023-09-15T01:11:35.327Z,1017.20
2023-09-15T01:12:35.309Z,1017.24
2023-09-15T01:13:35.323Z,1017.18
2023-09-15T01:14:35.265Z,1017.19
2023-09-15T01:15:35.320Z,1017.20
2023-09-15T01:16:35.397Z,1017.18
2023-09-15T01:17:35.251Z,1017.19
2023-09-15T01:18:35.255Z,1017.24
2023-09-15T01:19:35.253Z,1017.23
2023-09-15T01:20:35.197Z,1017.23
2023-09-15T01:21:35.198Z,1017.20
2023-09-15T01:22:35.152Z,1017.28
2023-09-15T01:23:35.201Z,1017.24
2023-09-15T01:24:35.155Z,1017.22
2023-09-15T01:25:35.160Z,1017.24
2023-09-15T01:26:35.092Z,1017.24
2023-09-15T01:27:35.116Z,1017.24
2023-09-15T01:28:35.083Z,1017.19
2023-09-15T01:29:35.086Z,1017.23
2023-09-15T01:30:35.055Z,1017.17
2023-09-15T01:31:35.144Z,1017.19
2023-09-15T01:32:35.181Z,1017.19
2023-09-15T01:33:35.006Z,1017.16
2023-09-15T01:34:34.991Z,1017.21
2023-09-15T01:35:34.989Z,1017.17
2023-09-15T01:36:35.000Z,1017.20
2023-09-15T01:37:34.957Z,1017.15
2023-09-15T01:38:34.971Z,1017.20
2023-09-15T01:39:34.951Z,1017.17
2023-09-15T01:40:34.953Z,1017.21
2023-09-15T01:41:34.944Z,1017.17
2023-09-15T01:42:34.898Z,1017.20
2023-09-15T01:43:34.895Z,1017.18
2023-09-15T01:44:34.890Z,1017.17
2023-09-15T01:45:34.908Z,1017.18
2023-09-15T01:46:34.886Z,1017.15
2023-09-15T01:47:34.891Z,1017.17
2023-09-15T01:48:34.844Z,1017.14
2023-09-15T01:49:34.807Z,1017.18
2023-09-15T01:50:34.785Z,1017.19
2023-09-15T01:51:34.778Z,1017.22
2023-09-15T01:52:34.841Z,1017.21
2023-09-15T01:53:34.774Z,1017.18
2023-09-15T01:54:34.754Z,1017.20
2023-09-15T01:55:34.758Z,1017.20
2023-09-15T01:56:34.726Z,1017.22
2023-09-15T01:57:34.745Z,1017.21
2023-09-15T01:58:34.712Z,1017.19
2023-09-15T01:59:34.695Z,1017.18
2023-09-15T02:00:34.677Z,1017.17
2023-09-15T02:01:34.749Z,1017.20
2023-09-15T02:02:34.718Z,1017.15
2023-09-15T02:03:34.666Z,1017.18
2023-09-15T02:04:34.602Z,1017.19
2023-09-15T02:05:34.595Z,1017.23
2023-09-15T02:06:34.605Z,1017.17
2023-09-15T02:07:34.571Z,1017.21
2023-09-15T02:08:34.560Z,1017.21
2023-09-15T02:09:34.574Z,1017.22
2023-09-15T02:10:34.542Z,1017.22
2023-09-15T02:11:34.522Z,1017.21
2023-09-15T02:12:34.505Z,1017.24
2023-09-15T02:13:34.497Z,1017.26
2023-09-15T02:14:34.495Z,1017.27
2023-09-15T02:15:34.530Z,1017.21
2023-09-15T02:16:34.532Z,1017.17
2023-09-15T02:17:34.483Z,1017.15
2023-09-15T02:18:34.425Z,1017.23
2023-09-15T02:19:34.462Z,1017.18
2023-09-15T02:20:34.432Z,1017.18
2023-09-15T02:21:34.419Z,1017.19
2023-09-15T02:22:34.393Z,1017.22
2023-09-15T02:23:34.399Z,1017.20
2023-09-15T02:24:34.368Z,1017.14
2023-09-15T02:25:34.365Z,1017.15
2023-09-15T02:26:34.382Z,1017.13
2023-09-15T02:27:34.333Z,1017.17
2023-09-15T02:28:34.320Z,1017.16
2023-09-15T02:29:34.303Z,1017.17
2023-09-15T02:30:34.314Z,1017.13
2023-09-15T02:31:34.352Z,1017.22
2023-09-15T02:32:34.291Z,1017.21
2023-09-15T02:33:34.280Z,1017.23
2023-09-15T02:34:34.219Z,1017.22
2023-09-15T02:35:35.162Z,1017.23
2023-09-15T02:36:34.221Z,1017.24
2023-09-15T02:37:34.231Z,1017.25
2023-09-15T02:38:34.170Z,1017.22
2023-09-15T02:39:34.191Z,1017.25
2023-09-15T02:40:34.139Z,1017.24
2023-09-15T02:41:34.975Z,1017.20
2023-09-15T02:42:34.128Z,1017.20
2023-09-15T02:43:34.124Z,1017.17
2023-09-15T02:44:34.097Z,1017.21
2023-09-15T02:45:34.108Z,1017.14
2023-09-15T02:46:34.165Z,1017.20
2023-09-15T02:47:34.087Z,1017.15
2023-09-15T02:48:34.060Z,1017.17
2023-09-15T02:49:34.058Z,1017.16
2023-09-15T02:50:34.012Z,1017.17
2023-09-15T02:51:34.026Z,1017.21
2023-09-15T02:52:34.021Z,1017.13
2023-09-15T02:53:33.979Z,1017.12
2023-09-15T02:54:33.972Z,1017.18
2023-09-15T02:55:33.991Z,1017.13
2023-09-15T02:56:33.957Z,1017.09
2023-09-15T02:57:33.933Z,1017.12
2023-09-15T02:58:33.949Z,1017.12
2023-09-15T02:59:33.932Z,1017.09
2023-09-15T03:00:33.956Z,1017.15
2023-09-15T03:01:33.951Z,1017.05
2023-09-15T03:02:33.949Z,1017.09
2023-09-15T03:03:33.913Z,1017.10
2023-09-15T03:04:33.827Z,1017.09
2023-09-15T03:05:33.845Z,1017.06
2023-09-15T03:06:33.830Z,1017.11
2023-09-15T03:07:33.824Z,1017.11
2023-09-15T03:08:33.775Z,1017.11
2023-09-15T03:09:33.780Z,1017.19
2023-09-15T03:10:33.786Z,1017.13
2023-09-15T03:11:33.764Z,1017.12
2023-09-15T03:12:33.743Z,1017.10
2023-09-15T03:13:33.742Z,1017.12
2023-09-15T03:14:33.723Z,1017.07
2023-09-15T03:15:33.715Z,1017.07
2023-09-15T03:16:33.846Z,1017.13
2023-09-15T03:17:33.814Z,1017.10
2023-09-15T03:18:33.682Z,1016.99
2023-09-15T03:19:33.676Z,1016.99
2023-09-15T03:20:33.640Z,1017.10
2023-09-15T03:21:33.643Z,1017.01
2023-09-15T03:22:33.623Z,1017.07
2023-09-15T03:23:33.630Z,1017.09
2023-09-15T03:24:33.610Z,1017.06
2023-09-15T03:25:33.608Z,1017.05
2023-09-15T03:26:33.557Z,1017.13
2023-09-15T03:27:33.549Z,1017.13
2023-09-15T03:28:33.540Z,1017.16
2023-09-15T03:29:33.531Z,1017.21
2023-09-15T03:30:33.556Z,1017.10
2023-09-15T03:31:33.629Z,1017.22
2023-09-15T03:32:33.540Z,1017.22
2023-09-15T03:33:33.487Z,1017.15
2023-09-15T03:34:33.466Z,1017.16
2023-09-15T03:35:33.452Z,1017.17
2023-09-15T03:36:33.422Z,1017.18
2023-09-15T03:37:33.509Z,1017.14
2023-09-15T03:38:33.424Z,1017.14
2023-09-15T03:39:33.400Z,1017.17
2023-09-15T03:40:33.370Z,1017.14
2023-09-15T03:41:33.363Z,1017.13
2023-09-15T03:42:33.379Z,1017.13
2023-09-15T03:43:33.379Z,1017.19
2023-09-15T03:44:33.348Z,1017.14
2023-09-15T03:45:33.393Z,1017.13
2023-09-15T03:46:33.413Z,1017.16
2023-09-15T03:47:33.364Z,1017.14
2023-09-15T03:48:33.327Z,1017.11
2023-09-15T03:49:33.325Z,1017.09
2023-09-15T03:50:33.377Z,1017.10
2023-09-15T03:51:33.343Z,1017.15
2023-09-15T03:52:33.266Z,1017.12
2023-09-15T03:53:33.227Z,1017.11
2023-09-15T03:54:33.219Z,1017.13
2023-09-15T03:55:33.173Z,1017.14
2023-09-15T03:56:33.184Z,1017.10
2023-09-15T03:57:33.163Z,1017.13
2023-09-15T03:58:33.181Z,1017.18
2023-09-15T03:59:33.128Z,1017.08
2023-09-15T04:00:33.130Z,1017.12
2023-09-15T04:01:33.210Z,1017.08
2023-09-15T04:02:33.107Z,1017.13
2023-09-15T04:03:33.079Z,1017.14
2023-09-15T04:04:33.135Z,1017.13
2023-09-15T04:05:33.062Z,1017.11
2023-09-15T04:06:33.088Z,1017.12
2023-09-15T04:07:33.141Z,1017.08
2023-09-15T04:08:33.027Z,1017.09
2023-09-15T04:09:33.016Z,1017.09
2023-09-15T04:10:33.074Z,1017.09
2023-09-15T04:11:32.963Z,1017.10
2023-09-15T04:12:32.996Z,1017.10
2023-09-15T04:13:32.964Z,1017.07
2023-09-15T04:14:32.956Z,1017.08
2023-09-15T04:15:32.926Z,1017.11
2023-09-15T04:16:32.999Z,1017.15
2023-09-15T04:17:32.940Z,1017.12
2023-09-15T04:18:32.888Z,1017.15
2023-09-15T04:19:33.077Z,1017.20
2023-09-15T04:20:45.204Z,1017.21
2023-09-15T04:21:32.846Z,1017.20
2023-09-15T04:22:32.875Z,1017.21
2023-09-15T04:23:32.818Z,1017.19
2023-09-15T04:24:32.827Z,1017.22
2023-09-15T04:25:32.809Z,1017.23
2023-09-15T04:26:32.799Z,1017.24
2023-09-15T04:27:32.793Z,1017.19
2023-09-15T04:28:32.793Z,1017.22
2023-09-15T04:29:32.739Z,1017.25
2023-09-15T04:30:32.736Z,1017.23
2023-09-15T04:31:32.836Z,1017.24
2023-09-15T04:32:32.737Z,1017.17
2023-09-15T04:33:32.699Z,1017.22
2023-09-15T04:34:32.696Z,1017.26
2023-09-15T04:35:32.677Z,1017.24
2023-09-15T04:36:32.668Z,1017.22
2023-09-15T04:37:32.660Z,1017.17
2023-09-15T04:38:32.631Z,1017.23
2023-09-15T04:39:32.616Z,1017.22
2023-09-15T04:40:32.623Z,1017.19
2023-09-15T04:41:32.591Z,1017.24
2023-09-15T04:42:32.604Z,1017.20
2023-09-15T04:43:32.574Z,1017.15
2023-09-15T04:44:32.566Z,1017.22
2023-09-15T04:45:32.545Z,1017.23
2023-09-15T04:46:32.612Z,1017.21
2023-09-15T04:47:32.562Z,1017.22
2023-09-15T04:48:32.500Z,1017.21
2023-09-15T04:49:32.502Z,1017.21
2023-09-15T04:50:32.475Z,1017.23
2023-09-15T04:51:32.484Z,1017.19
2023-09-15T04:52:32.444Z,1017.28
2023-09-15T04:53:32.463Z,1017.23
2023-09-15T04:54:32.435Z,1017.27
2023-09-15T04:55:32.431Z,1017.25
2023-09-15T04:56:32.416Z,1017.25
2023-09-15T04:57:32.404Z,1017.29
2023-09-15T04:58:32.393Z,1017.29
2023-09-15T04:59:32.376Z,1017.30
2023-09-15T05:00:32.366Z,1017.33
2023-09-15T05:01:32.473Z,1017.35
2023-09-15T05:02:32.331Z,1017.33
2023-09-15T05:03:32.415Z,1017.37
2023-09-15T05:04:32.390Z,1017.30
2023-09-15T05:05:32.282Z,1017.29
2023-09-15T05:06:32.283Z,1017.28
2023-09-15T05:07:32.283Z,1017.27
2023-09-15T05:08:32.268Z,1017.29
2023-09-15T05:09:32.243Z,1017.29
2023-09-15T05:10:32.300Z,1017.29
2023-09-15T05:11:32.197Z,1017.22
2023-09-15T05:12:32.191Z,1017.26
2023-09-15T05:13:32.222Z,1017.27
2023-09-15T05:14:34.013Z,1017.22
2023-09-15T05:15:32.152Z,1017.29
2023-09-15T05:16:32.285Z,1017.25
2023-09-15T05:17:32.180Z,1017.30
2023-09-15T05:18:32.106Z,1017.30
2023-09-15T05:19:32.151Z,1017.32
2023-09-15T05:20:32.099Z,1017.29
2023-09-15T05:21:32.079Z,1017.30
2023-09-15T05:22:32.147Z,1017.28
2023-09-15T05:23:32.063Z,1017.35
2023-09-15T05:24:32.062Z,1017.30
2023-09-15T05:25:32.074Z,1017.28
2023-09-15T05:26:32.037Z,1017.32
2023-09-15T05:27:32.011Z,1017.34
2023-09-15T05:28:32.107Z,1017.38
2023-09-15T05:29:31.959Z,1017.37
2023-09-15T05:30:31.953Z,1017.38
2023-09-15T05:31:32.016Z,1017.36
2023-09-15T05:32:31.953Z,1017.32
2023-09-15T05:33:31.916Z,1017.40
2023-09-15T05:34:31.924Z,1017.35
2023-09-15T05:35:31.889Z,1017.38
2023-09-15T05:36:31.897Z,1017.40
2023-09-15T05:37:31.939Z,1017.36
2023-09-15T05:38:31.899Z,1017.39
2023-09-15T05:39:31.830Z,1017.44
2023-09-15T05:40:31.847Z,1017.38
2023-09-15T05:41:31.844Z,1017.37
2023-09-15T05:42:31.817Z,1017.42
2023-09-15T05:43:31.865Z,1017.38
2023-09-15T05:44:31.775Z,1017.41
2023-09-15T05:45:31.760Z,1017.38
2023-09-15T05:46:31.820Z,1017.40
2023-09-15T05:47:31.805Z,1017.45
2023-09-15T05:48:31.740Z,1017.41
2023-09-15T05:49:31.786Z,1017.41
2023-09-15T05:50:31.696Z,1017.37
2023-09-15T05:51:31.701Z,1017.38
2023-09-15T05:52:31.720Z,1017.39
2023-09-15T05:53:31.665Z,1017.37
2023-09-15T05:54:31.652Z,1017.41
2023-09-15T05:55:31.682Z,1017.37
2023-09-15T05:56:31.641Z,1017.37
2023-09-15T05:57:31.616Z,1017.33
2023-09-15T05:58:31.621Z,1017.37
2023-09-15T05:59:31.579Z,1017.40
2023-09-15T06:00:31.579Z,1017.37
2023-09-15T06:01:31.729Z,1017.42
2023-09-15T06:02:31.576Z,1017.40
2023-09-15T06:03:31.618Z,1017.42
2023-09-15T06:04:31.579Z,1017.35
2023-09-15T06:05:31.507Z,1017.34
2023-09-15T06:06:31.503Z,1017.37
2023-09-15T06:07:31.598Z,1017.40
2023-09-15T06:08:31.486Z,1017.43
2023-09-15T06:09:31.463Z,1017.41
2023-09-15T06:10:31.546Z,1017.40
2023-09-15T06:11:31.424Z,1017.44
2023-09-15T06:12:31.427Z,1017.39
2023-09-15T06:13:31.427Z,1017.38
2023-09-15T06:14:31.398Z,1017.41
2023-09-15T06:15:31.387Z,1017.38
2023-09-15T06:16:31.427Z,1017.40
2023-09-15T06:17:31.382Z,1017.37
2023-09-15T06:18:31.364Z,1017.36
2023-09-15T06:19:31.340Z,1017.30
2023-09-15T06:20:31.328Z,1017.31
2023-09-15T06:21:31.390Z,1017.35
2023-09-15T06:22:31.351Z,1017.33
2023-09-15T06:23:31.329Z,1017.36
2023-09-15T06:24:31.266Z,1017.34
2023-09-15T06:25:31.284Z,1017.30
2023-09-15T06:26:31.232Z,1017.33
2023-09-15T06:27:31.217Z,1017.30
2023-09-15T06:28:31.260Z,1017.34
2023-09-15T06:29:31.242Z,1017.38
2023-09-15T06:30:31.184Z,1017.35
2023-09-15T06:31:31.276Z,1017.33
2023-09-15T06:32:31.187Z,1017.35
2023-09-15T06:33:31.178Z,1017.31
2023-09-15T06:34:31.179Z,1017.34
2023-09-15T06:35:31.106Z,1017.30
2023-09-15T06:36:31.117Z,1017.34
2023-09-15T06:37:31.124Z,1017.36
2023-09-15T06:38:31.075Z,1017.38
2023-09-15T06:39:31.086Z,1017.39
2023-09-15T06:40:31.071Z,1017.41
2023-09-15T06:41:31.061Z,1017.44
2023-09-15T06:42:31.037Z,1017.41
2023-09-15T06:43:31.043Z,1017.40
2023-09-15T06:44:31.010Z,1017.43
2023-09-15T06:45:31.022Z,1017.46
2023-09-15T06:46:31.085Z,1017.48
2023-09-15T06:47:31.032Z,1017.48
2023-09-15T06:48:30.977Z,1017.50
2023-09-15T06:49:30.963Z,1017.49
2023-09-15T06:50:30.957Z,1017.43
2023-09-15T06:51:30.920Z,1017.48
2023-09-15T06:52:30.917Z,1017.47
2023-09-15T06:53:30.891Z,1017.50
2023-09-15T06:54:30.885Z,1017.50
2023-09-15T06:55:30.943Z,1017.48
2023-09-15T06:56:30.858Z,1017.48
2023-09-15T06:57:30.895Z,1017.45
2023-09-15T06:58:30.855Z,1017.49
2023-09-15T06:59:30.803Z,1017.47
2023-09-15T07:00:30.810Z,1017.46
2023-09-15T07:01:30.806Z,1017.47
2023-09-15T07:02:30.817Z,1017.50
2023-09-15T07:03:30.746Z,1017.47
2023-09-15T07:04:30.878Z,1017.47
2023-09-15T07:05:30.721Z,1017.48
2023-09-15T07:06:30.737Z,1017.41
2023-09-15T07:07:30.770Z,1017.44
2023-09-15T07:08:30.710Z,1017.43
2023-09-15T07:09:30.667Z,1017.40
2023-09-15T07:10:30.682Z,1017.44
2023-09-15T07:11:30.684Z,1017.43
2023-09-15T07:12:30.656Z,1017.43
2023-09-15T07:13:30.639Z,1017.45
2023-09-15T07:14:30.628Z,1017.41
2023-09-15T07:15:30.604Z,1017.42
2023-09-15T07:16:30.720Z,1017.42
2023-09-15T07:17:30.772Z,1017.45
2023-09-15T07:18:30.578Z,1017.41
2023-09-15T07:19:30.640Z,1017.38
2023-09-15T07:20:30.537Z,1017.40
2023-09-15T07:21:30.532Z,1017.32
2023-09-15T07:22:30.576Z,1017.35
2023-09-15T07:23:30.513Z,1017.34
2023-09-15T07:24:30.485Z,1017.37
2023-09-15T07:25:30.473Z,1017.35
2023-09-15T07:26:30.455Z,1017.32
2023-09-15T07:27:30.455Z,1017.34
2023-09-15T07:28:30.493Z,1017.31
2023-09-15T07:29:30.407Z,1017.38
2023-09-15T07:30:30.404Z,1017.38
2023-09-15T07:31:30.440Z,1017.35
2023-09-15T07:32:30.418Z,1017.37
2023-09-15T07:33:30.393Z,1017.39
2023-09-15T07:34:30.385Z,1017.38
2023-09-15T07:35:30.327Z,1017.42
2023-09-15T07:36:30.329Z,1017.40
2023-09-15T07:37:30.324Z,1017.37
2023-09-15T07:38:32.078Z,1017.38
2023-09-15T07:39:30.302Z,1017.37
2023-09-15T07:40:30.351Z,1017.37
2023-09-15T07:41:30.273Z,1017.39
2023-09-15T07:42:30.241Z,1017.41
2023-09-15T07:43:30.301Z,1017.41
2023-09-15T07:44:30.231Z,1017.42
2023-09-15T07:45:30.236Z,1017.44
2023-09-15T07:46:30.318Z,1017.48
2023-09-15T07:47:30.226Z,1017.45
2023-09-15T07:48:30.174Z,1017.45
2023-09-15T07:49:30.206Z,1017.43
2023-09-15T07:50:30.175Z,1017.38
2023-09-15T07:51:30.148Z,1017.44
2023-09-15T07:52:30.176Z,1017.42
2023-09-15T07:53:30.114Z,1017.41
2023-09-15T07:54:30.103Z,1017.37
2023-09-15T07:55:30.121Z,1017.39
2023-09-15T07:56:30.081Z,1017.32
2023-09-15T07:57:30.069Z,1017.32
2023-09-15T07:58:30.174Z,1017.42
2023-09-15T07:59:30.043Z,1017.42
2023-09-15T08:00:30.022Z,1017.38
2023-09-15T08:01:30.072Z,1017.44
2023-09-15T08:02:30.032Z,1017.44
2023-09-15T08:03:30.003Z,1017.45
2023-09-15T08:04:30.151Z,1017.48
2023-09-15T08:05:29.974Z,1017.44
2023-09-15T08:06:29.948Z,1017.42
2023-09-15T08:07:30.001Z,1017.46
2023-09-15T08:08:29.947Z,1017.41
2023-09-15T08:09:29.896Z,1017.44
2023-09-15T08:10:29.924Z,1017.44
2023-09-15T08:11:29.889Z,1017.41
2023-09-15T08:12:29.895Z,1017.43
2023-09-15T08:13:29.909Z,1017.45
2023-09-15T08:14:29.867Z,1017.46
2023-09-15T08:15:29.845Z,1017.43
2023-09-15T08:16:29.843Z,1017.44
2023-09-15T08:17:34.204Z,1017.44
2023-09-15T08:18:29.872Z,1017.41
2023-09-15T08:19:29.808Z,1017.40
2023-09-15T08:20:29.772Z,1017.37
2023-09-15T08:21:29.762Z,1017.38
2023-09-15T08:22:29.777Z,1017.34
2023-09-15T08:23:29.772Z,1017.40
2023-09-15T08:24:29.718Z,1017.37
2023-09-15T08:25:29.756Z,1017.39
2023-09-15T08:26:36.125Z,1017.38
2023-09-15T08:27:29.886Z,1017.34
2023-09-15T08:28:29.723Z,1017.33
2023-09-15T08:29:29.646Z,1017.35
2023-09-15T08:30:29.616Z,1017.32
2023-09-15T08:31:29.686Z,1017.35
2023-09-15T08:32:29.612Z,1017.33
2023-09-15T08:33:29.663Z,1017.31
2023-09-15T08:34:29.604Z,1017.32
2023-09-15T08:35:29.623Z,1017.25
2023-09-15T08:36:29.556Z,1017.23
2023-09-15T08:37:29.578Z,1017.23
2023-09-15T08:38:29.529Z,1017.22
2023-09-15T08:39:29.553Z,1017.25
2023-09-15T08:40:29.525Z,1017.20
2023-09-15T08:41:29.478Z,1017.23
2023-09-15T08:42:29.508Z,1017.25
2023-09-15T08:43:31.047Z,1017.22
2023-09-15T08:44:29.450Z,1017.26
2023-09-15T08:45:29.434Z,1017.24
2023-09-15T08:46:29.548Z,1017.23
2023-09-15T08:47:29.402Z,1017.26
2023-09-15T08:48:29.413Z,1017.22
2023-09-15T08:49:29.400Z,1017.20
2023-09-15T08:50:29.391Z,1017.25
2023-09-15T08:51:29.368Z,1017.20
2023-09-15T08:52:29.423Z,1017.17
2023-09-15T08:53:29.356Z,1017.17
2023-09-15T08:54:29.315Z,1017.14
2023-09-15T08:55:29.335Z,1017.16
2023-09-15T08:56:29.310Z,1017.20
2023-09-15T08:57:29.284Z,1017.11
2023-09-15T08:58:29.321Z,1017.15
2023-09-15T08:59:29.249Z,1017.18
2023-09-15T09:00:29.260Z,1017.13
2023-09-15T09:01:29.296Z,1017.11
2023-09-15T09:02:29.326Z,1017.11
2023-09-15T09:03:29.295Z,1017.16
2023-09-15T09:04:29.341Z,1017.13
2023-09-15T09:05:29.171Z,1017.12
2023-09-15T09:06:29.167Z,1017.13
2023-09-15T09:07:29.226Z,1017.13
2023-09-15T09:08:29.149Z,1017.13
2023-09-15T09:09:29.140Z,1017.17
2023-09-15T09:10:29.176Z,1017.13
2023-09-15T09:11:29.111Z,1017.08
2023-09-15T09:12:29.108Z,1017.11
2023-09-15T09:13:42.597Z,1017.13
2023-09-15T09:14:29.062Z,1017.09
2023-09-15T09:15:29.064Z,1017.12
2023-09-15T09:16:29.237Z,1017.12
2023-09-15T09:17:29.018Z,1017.10
2023-09-15T09:18:29.045Z,1017.11
2023-09-15T09:19:29.064Z,1017.07
2023-09-15T09:20:28.990Z,1017.09
2023-09-15T09:21:28.979Z,1017.09
2023-09-15T09:22:29.187Z,1017.09
2023-09-15T09:23:28.938Z,1017.09
2023-09-15T09:24:28.965Z,1017.12
2023-09-15T09:25:28.967Z,1017.08
2023-09-15T09:26:28.913Z,1017.12
2023-09-15T09:27:28.888Z,1017.11
2023-09-15T09:28:28.926Z,1017.10
2023-09-15T09:29:28.886Z,1017.04
2023-09-15T09:30:28.851Z,1017.04
2023-09-15T09:31:28.889Z,1017.04
2023-09-15T09:32:28.847Z,1017.05
2023-09-15T09:33:28.834Z,1017.00
2023-09-15T09:34:46.180Z,1017.08
2023-09-15T09:35:28.849Z,1017.03
2023-09-15T09:36:28.785Z,1017.06
2023-09-15T09:37:28.755Z,1017.04
2023-09-15T09:38:28.738Z,1017.03
2023-09-15T09:39:28.757Z,1017.01
2023-09-15T09:40:28.740Z,1017.02
2023-09-15T09:41:30.269Z,1017.01
2023-09-15T09:42:28.726Z,1017.04
2023-09-15T09:43:28.694Z,1016.97
2023-09-15T09:44:28.688Z,1017.03
2023-09-15T09:45:28.719Z,1017.02
2023-09-15T09:46:28.729Z,1017.00
2023-09-15T09:47:28.698Z,1017.04
2023-09-15T09:48:28.683Z,1017.03
2023-09-15T09:49:28.598Z,1016.95
2023-09-15T09:50:28.621Z,1016.97
2023-09-15T09:51:28.625Z,1016.92
2023-09-15T09:52:28.557Z,1016.93
2023-09-15T09:53:28.549Z,1016.88
2023-09-15T09:54:28.553Z,1016.94
2023-09-15T09:55:28.536Z,1016.89
2023-09-15T09:56:28.509Z,1016.90
2023-09-15T09:57:28.549Z,1016.90
2023-09-15T09:58:28.482Z,1016.86
2023-09-15T09:59:28.485Z,1016.83
2023-09-15T10:00:28.504Z,1016.87
2023-09-15T10:01:28.532Z,1016.87
2023-09-15T10:02:28.513Z,1016.85
2023-09-15T10:03:28.546Z,1016.88
2023-09-15T10:04:28.406Z,1016.81
2023-09-15T10:05:28.409Z,1016.84
2023-09-15T10:06:28.415Z,1016.79
2023-09-15T10:07:28.368Z,1016.79
2023-09-15T10:08:28.378Z,1016.79
2023-09-15T10:09:28.414Z,1016.79
2023-09-15T10:10:28.344Z,1016.75
2023-09-15T10:11:28.337Z,1016.77
2023-09-15T10:12:28.339Z,1016.76
2023-09-15T10:13:28.317Z,1016.77
2023-09-15T10:14:28.312Z,1016.72
2023-09-15T10:15:28.392Z,1016.69
2023-09-15T10:16:28.286Z,1016.70
2023-09-15T10:17:28.303Z,1016.67
2023-09-15T10:18:28.270Z,1016.63
2023-09-15T10:19:28.233Z,1016.63
2023-09-15T10:20:28.215Z,1016.65
2023-09-15T10:21:28.210Z,1016.65
2023-09-15T10:22:28.179Z,1016.62
2023-09-15T10:23:28.181Z,1016.53
2023-09-15T10:24:28.279Z,1016.56
2023-09-15T10:25:28.196Z,1016.57
2023-09-15T10:26:28.133Z,1016.54
2023-09-15T10:27:28.137Z,1016.57
2023-09-15T10:28:42.048Z,1016.59
2023-09-15T10:29:28.117Z,1016.56
2023-09-15T10:30:28.116Z,1016.60
2023-09-15T10:31:28.106Z,1016.61
2023-09-15T10:32:28.068Z,1016.59
2023-09-15T10:33:28.085Z,1016.53
2023-09-15T10:34:28.026Z,1016.50
2023-09-15T10:35:28.022Z,1016.56
2023-09-15T10:36:28.032Z,1016.58
2023-09-15T10:37:28.004Z,1016.53
2023-09-15T10:38:27.980Z,1016.50
2023-09-15T10:39:28.007Z,1016.55
2023-09-15T10:40:27.947Z,1016.52
2023-09-15T10:41:27.947Z,1016.46
2023-09-15T10:42:27.998Z,1016.43
2023-09-15T10:43:28.340Z,1016.47
2023-09-15T10:44:27.915Z,1016.45
2023-09-15T10:45:27.884Z,1016.43
2023-09-15T10:46:27.875Z,1016.44
2023-09-15T10:47:27.874Z,1016.46
2023-09-15T10:48:27.866Z,1016.44
2023-09-15T10:49:27.833Z,1016.44
2023-09-15T10:50:28.013Z,1016.39
2023-09-15T10:51:27.852Z,1016.41
2023-09-15T10:52:27.786Z,1016.39
2023-09-15T10:53:27.777Z,1016.36
2023-09-15T10:54:27.835Z,1016.40
2023-09-15T10:55:27.766Z,1016.30
2023-09-15T10:56:27.739Z,1016.32
2023-09-15T10:57:27.797Z,1016.31
2023-09-15T10:58:27.699Z,1016.29
2023-09-15T10:59:27.709Z,1016.30
2023-09-15T11:00:27.743Z,1016.28
2023-09-15T11:01:27.717Z,1016.29
2023-09-15T11:02:27.715Z,1016.36
2023-09-15T11:03:28.492Z,1016.29
2023-09-15T11:04:27.615Z,1016.30
2023-09-15T11:05:27.613Z,1016.31
2023-09-15T11:06:27.638Z,1016.28
2023-09-15T11:07:27.617Z,1016.21
2023-09-15T11:08:27.600Z,1016.18
2023-09-15T11:09:27.656Z,1016.16
2023-09-15T11:10:27.573Z,1016.14
2023-09-15T11:11:27.551Z,1016.12
2023-09-15T11:12:27.577Z,1016.11
2023-09-15T11:13:27.534Z,1016.09
2023-09-15T11:14:27.551Z,1016.08
2023-09-15T11:15:27.517Z,1016.13
2023-09-15T11:16:29.052Z,1016.13
2023-09-15T11:17:27.515Z,1016.13
2023-09-15T11:18:27.457Z,1016.10
2023-09-15T11:19:27.442Z,1016.09
2023-09-15T11:20:27.426Z,1016.09
2023-09-15T11:21:33.448Z,1016.04
2023-09-15T11:22:27.394Z,1016.03
2023-09-15T11:23:27.404Z,1016.04
2023-09-15T11:24:27.400Z,1016.09
2023-09-15T11:25:27.363Z,1016.02
2023-09-15T11:26:28.659Z,1016.02
2023-09-15T11:27:27.409Z,1016.00
2023-09-15T11:28:27.323Z,1015.97
2023-09-15T11:29:27.321Z,1015.96
2023-09-15T11:30:27.310Z,1015.95
2023-09-15T11:31:27.288Z,1015.92
2023-09-15T11:32:27.271Z,1015.86
2023-09-15T11:33:27.382Z,1015.89
2023-09-15T11:34:27.400Z,1015.89
2023-09-15T11:35:27.259Z,1015.91
2023-09-15T11:36:27.277Z,1015.93
2023-09-15T11:37:27.231Z,1015.90
2023-09-15T11:38:27.199Z,1015.93
2023-09-15T11:39:27.221Z,1015.92
2023-09-15T11:40:27.183Z,1015.87
2023-09-15T11:41:27.171Z,1015.86
2023-09-15T11:42:27.181Z,1015.90
2023-09-15T11:43:27.166Z,1015.83
2023-09-15T11:44:27.144Z,1015.89
2023-09-15T11:45:27.160Z,1015.87
2023-09-15T11:46:27.228Z,1015.80
2023-09-15T11:47:27.098Z,1015.86
2023-09-15T11:48:27.073Z,1015.82
2023-09-15T11:49:27.146Z,1015.82
2023-09-15T11:50:27.048Z,1015.81
2023-09-15T11:51:27.166Z,1015.79
2023-09-15T11:52:27.015Z,1015.80
2023-09-15T11:53:27.041Z,1015.77
2023-09-15T11:54:27.254Z,1015.82
2023-09-15T11:55:27.011Z,1015.84
2023-09-15T11:56:26.966Z,1015.82
2023-09-15T11:57:27.017Z,1015.79
2023-09-15T11:58:26.931Z,1015.83
2023-09-15T11:59:26.928Z,1015.82
2023-09-15T12:00:27.082Z,1015.80
2023-09-15T12:01:26.971Z,1015.79
2023-09-15T12:02:26.936Z,1015.81
2023-09-15T12:03:26.952Z,1015.77
2023-09-15T12:04:27.028Z,1015.81
2023-09-15T12:05:26.853Z,1015.75